Terminal Aerodrome Forecast
Issued by NWS

Home | Current Version | Previous Version | Text Only | Print | Product List | Glossary On
Versions: 1 2 3 4 5 6 7 8 9 10 11 12 13
767
FTUS44 KLZK 130520
TAFBPK
TAF
KBPK 130520Z 1306/1406 35008KT P6SM BKN250
     FM131500 10009KT P6SM SCT100 SCT250
     FM132000 13008KT P6SM BKN250=

USA.gov is the U.S. government's official web portal to all federal, state and local government web resources and services.